sensor_id;sensor_type;location;lat;lon;timestamp;temperature;humidity
19044;DHT22;9654;52.302;8.120;2022-10-16T00:02:13;12.90;99.90
19044;DHT22;9654;52.302;8.120;2022-10-16T00:04:40;12.90;99.90
19044;DHT22;9654;52.302;8.120;2022-10-16T00:07:06;12.90;99.90
19044;DHT22;9654;52.302;8.120;2022-10-16T00:09:33;12.80;99.90
19044;DHT22;9654;52.302;8.120;2022-10-16T00:12:01;12.90;99.90
19044;DHT22;9654;52.302;8.120;2022-10-16T00:14:29;12.90;99.90
19044;DHT22;9654;52.302;8.120;2022-10-16T00:16:56;12.90;99.90
19044;DHT22;9654;52.302;8.120;2022-10-16T00:19:23;12.90;99.90
19044;DHT22;9654;52.302;8.120;2022-10-16T00:21:49;12.90;99.90
19044;DHT22;9654;52.302;8.120;2022-10-16T00:24:16;12.80;99.90
19044;DHT22;9654;52.302;8.120;2022-10-16T00:26:43;12.90;99.90
19044;DHT22;9654;52.302;8.120;2022-10-16T00:29:11;12.80;99.90
19044;DHT22;9654;52.302;8.120;2022-10-16T00:31:38;12.80;99.90
19044;DHT22;9654;52.302;8.120;2022-10-16T00:34:04;12.80;99.90
19044;DHT22;9654;52.302;8.120;2022-10-16T00:36:31;12.80;99.90
19044;DHT22;9654;52.302;8.120;2022-10-16T00:38:58;12.80;99.90
19044;DHT22;9654;52.302;8.120;2022-10-16T00:41:27;12.80;99.90
19044;DHT22;9654;52.302;8.120;2022-10-16T00:43:56;12.90;99.90
19044;DHT22;9654;52.302;8.120;2022-10-16T00:46:25;12.80;99.90
19044;DHT22;9654;52.302;8.120;2022-10-16T00:48:57;12.90;99.90
19044;DHT22;9654;52.302;8.120;2022-10-16T00:51:28;12.90;99.90
19044;DHT22;9654;52.302;8.120;2022-10-16T00:53:56;12.90;99.90
19044;DHT22;9654;52.302;8.120;2022-10-16T00:56:23;12.80;99.90
19044;DHT22;9654;52.302;8.120;2022-10-16T00:58:50;12.80;99.90
19044;DHT22;9654;52.302;8.120;2022-10-16T01:01:17;12.70;99.90
19044;DHT22;9654;52.302;8.120;2022-10-16T01:03:45;12.70;99.90
19044;DHT22;9654;52.302;8.120;2022-10-16T01:06:21;12.60;99.90
19044;DHT22;9654;52.302;8.120;2022-10-16T01:09:00;12.70;99.90
19044;DHT22;9654;52.302;8.120;2022-10-16T01:11:32;12.70;99.90
19044;DHT22;9654;52.302;8.120;2022-10-16T01:14:05;12.70;99.90
19044;DHT22;9654;52.302;8.120;2022-10-16T01:16:36;12.70;99.90
19044;DHT22;9654;52.302;8.120;2022-10-16T01:19:14;12.60;99.90
19044;DHT22;9654;52.302;8.120;2022-10-16T01:21:44;12.60;99.90
19044;DHT22;9654;52.302;8.120;2022-10-16T01:24:18;12.50;99.90
19044;DHT22;9654;52.302;8.120;2022-10-16T01:27:10;12.40;99.90
19044;DHT22;9654;52.302;8.120;2022-10-16T01:29:42;12.40;99.90
19044;DHT22;9654;52.302;8.120;2022-10-16T01:32:15;12.40;99.90
19044;DHT22;9654;52.302;8.120;2022-10-16T01:34:48;12.40;99.90
19044;DHT22;9654;52.302;8.120;2022-10-16T01:37:21;12.40;99.90
19044;DHT22;9654;52.302;8.120;2022-10-16T01:39:49;12.40;99.90
19044;DHT22;9654;52.302;8.120;2022-10-16T01:42:21;12.40;99.90
19044;DHT22;9654;52.302;8.120;2022-10-16T01:44:50;12.40;99.90
19044;DHT22;9654;52.302;8.120;2022-10-16T01:47:19;12.40;99.90
19044;DHT22;9654;52.302;8.120;2022-10-16T01:49:46;12.40;99.90
19044;DHT22;9654;52.302;8.120;2022-10-16T01:52:16;12.30;99.90
19044;DHT22;9654;52.302;8.120;2022-10-16T01:54:46;12.30;99.90
19044;DHT22;9654;52.302;8.120;2022-10-16T01:57:15;12.20;99.90
19044;DHT22;9654;52.302;8.120;2022-10-16T01:59:47;12.10;99.90
19044;DHT22;9654;52.302;8.120;2022-10-16T02:02:17;12.10;99.90
19044;DHT22;9654;52.302;8.120;2022-10-16T02:04:48;12.10;99.90
19044;DHT22;9654;52.302;8.120;2022-10-16T02:07:16;12.10;99.90
19044;DHT22;9654;52.302;8.120;2022-10-16T02:09:43;12.10;99.90
19044;DHT22;9654;52.302;8.120;2022-10-16T02:12:15;12.10;99.90
19044;DHT22;9654;52.302;8.120;2022-10-16T02:14:46;12.10;99.90
19044;DHT22;9654;52.302;8.120;2022-10-16T02:17:15;12.10;99.90
19044;DHT22;9654;52.302;8.120;2022-10-16T02:19:43;12.10;99.90
19044;DHT22;9654;52.302;8.120;2022-10-16T02:22:15;12.10;99.90
19044;DHT22;9654;52.302;8.120;2022-10-16T02:24:50;12.20;99.90
19044;DHT22;9654;52.302;8.120;2022-10-16T02:27:22;12.20;99.90
19044;DHT22;9654;52.302;8.120;2022-10-16T02:29:55;12.20;99.90
19044;DHT22;9654;52.302;8.120;2022-10-16T02:32:28;12.20;99.90
19044;DHT22;9654;52.302;8.120;2022-10-16T02:34:57;12.20;99.90
19044;DHT22;9654;52.302;8.120;2022-10-16T02:37:26;12.20;99.90
19044;DHT22;9654;52.302;8.120;2022-10-16T02:39:55;12.20;99.90
19044;DHT22;9654;52.302;8.120;2022-10-16T02:42:28;12.20;99.90
19044;DHT22;9654;52.302;8.120;2022-10-16T02:44:56;12.20;99.90
19044;DHT22;9654;52.302;8.120;2022-10-16T02:47:23;12.10;99.90
19044;DHT22;9654;52.302;8.120;2022-10-16T02:49:49;12.10;99.90
19044;DHT22;9654;52.302;8.120;2022-10-16T02:52:16;12.10;99.90
19044;DHT22;9654;52.302;8.120;2022-10-16T02:54:43;12.10;99.90
19044;DHT22;9654;52.302;8.120;2022-10-16T02:57:09;12.00;99.90
19044;DHT22;9654;52.302;8.120;2022-10-16T02:59:37;12.10;99.90
19044;DHT22;9654;52.302;8.120;2022-10-16T03:02:05;12.00;99.90
19044;DHT22;9654;52.302;8.120;2022-10-16T03:04:31;12.00;99.90
19044;DHT22;9654;52.302;8.120;2022-10-16T03:06:58;12.10;99.90
19044;DHT22;9654;52.302;8.120;2022-10-16T03:09:25;12.10;99.90
19044;DHT22;9654;52.302;8.120;2022-10-16T03:11:51;12.10;99.90
19044;DHT22;9654;52.302;8.120;2022-10-16T03:14:18;12.00;99.90
19044;DHT22;9654;52.302;8.120;2022-10-16T03:16:45;12.00;99.90
19044;DHT22;9654;52.302;8.120;2022-10-16T03:19:13;12.00;99.90
19044;DHT22;9654;52.302;8.120;2022-10-16T03:21:40;12.00;99.90
19044;DHT22;9654;52.302;8.120;2022-10-16T03:24:06;12.00;99.90
19044;DHT22;9654;52.302;8.120;2022-10-16T03:26:33;12.00;99.90
19044;DHT22;9654;52.302;8.120;2022-10-16T03:29:00;12.00;99.90
19044;DHT22;9654;52.302;8.120;2022-10-16T03:31:28;12.10;99.90
19044;DHT22;9654;52.302;8.120;2022-10-16T03:33:54;12.10;99.90
19044;DHT22;9654;52.302;8.120;2022-10-16T03:36:22;12.10;99.90
19044;DHT22;9654;52.302;8.120;2022-10-16T03:38:49;12.10;99.90
19044;DHT22;9654;52.302;8.120;2022-10-16T03:41:16;12.10;99.90
19044;DHT22;9654;52.302;8.120;2022-10-16T03:43:43;12.00;99.90
19044;DHT22;9654;52.302;8.120;2022-10-16T03:46:10;12.10;99.90
19044;DHT22;9654;52.302;8.120;2022-10-16T03:48:37;12.10;99.90
19044;DHT22;9654;52.302;8.120;2022-10-16T03:51:05;12.10;99.90
19044;DHT22;9654;52.302;8.120;2022-10-16T03:53:33;12.10;99.90
19044;DHT22;9654;52.302;8.120;2022-10-16T03:56:00;12.20;99.90
19044;DHT22;9654;52.302;8.120;2022-10-16T03:58:27;12.10;99.90
19044;DHT22;9654;52.302;8.120;2022-10-16T04:00:54;12.20;99.90
19044;DHT22;9654;52.302;8.120;2022-10-16T04:03:21;12.10;99.90
19044;DHT22;9654;52.302;8.120;2022-10-16T04:05:48;12.10;99.90
19044;DHT22;9654;52.302;8.120;2022-10-16T04:08:15;12.10;99.90
19044;DHT22;9654;52.302;8.120;2022-10-16T04:10:43;12.10;99.90
19044;DHT22;9654;52.302;8.120;2022-10-16T04:13:11;12.10;99.90
19044;DHT22;9654;52.302;8.120;2022-10-16T04:15:38;12.10;99.90
19044;DHT22;9654;52.302;8.120;2022-10-16T04:18:05;12.10;99.90
19044;DHT22;9654;52.302;8.120;2022-10-16T04:20:32;12.10;99.90
19044;DHT22;9654;52.302;8.120;2022-10-16T04:22:59;12.10;99.90
19044;DHT22;9654;52.302;8.120;2022-10-16T04:25:25;12.10;99.90
19044;DHT22;9654;52.302;8.120;2022-10-16T04:27:54;12.10;99.90
19044;DHT22;9654;52.302;8.120;2022-10-16T04:30:21;12.10;99.90
19044;DHT22;9654;52.302;8.120;2022-10-16T04:32:48;12.00;99.90
19044;DHT22;9654;52.302;8.120;2022-10-16T04:35:15;12.10;99.90
19044;DHT22;9654;52.302;8.120;2022-10-16T04:37:42;12.10;99.90
19044;DHT22;9654;52.302;8.120;2022-10-16T04:40:09;12.00;99.90
19044;DHT22;9654;52.302;8.120;2022-10-16T04:42:36;12.10;99.90
19044;DHT22;9654;52.302;8.120;2022-10-16T04:45:05;12.10;99.90
19044;DHT22;9654;52.302;8.120;2022-10-16T04:47:32;12.10;99.90
19044;DHT22;9654;52.302;8.120;2022-10-16T04:49:59;12.10;99.90
19044;DHT22;9654;52.302;8.120;2022-10-16T04:52:26;12.10;99.90
19044;DHT22;9654;52.302;8.120;2022-10-16T04:54:53;12.10;99.90
19044;DHT22;9654;52.302;8.120;2022-10-16T04:57:21;12.10;99.90
19044;DHT22;9654;52.302;8.120;2022-10-16T04:59:48;12.10;99.90
19044;DHT22;9654;52.302;8.120;2022-10-16T05:02:16;12.10;99.90
19044;DHT22;9654;52.302;8.120;2022-10-16T05:04:43;12.10;99.90
19044;DHT22;9654;52.302;8.120;2022-10-16T05:07:10;12.20;99.90
19044;DHT22;9654;52.302;8.120;2022-10-16T05:09:37;12.10;99.90
19044;DHT22;9654;52.302;8.120;2022-10-16T05:12:03;12.10;99.90
19044;DHT22;9654;52.302;8.120;2022-10-16T05:14:30;12.10;99.90
19044;DHT22;9654;52.302;8.120;2022-10-16T05:16:57;12.20;99.90
19044;DHT22;9654;52.302;8.120;2022-10-16T05:19:25;12.20;99.90
19044;DHT22;9654;52.302;8.120;2022-10-16T05:21:52;12.20;99.90
19044;DHT22;9654;52.302;8.120;2022-10-16T05:24:19;12.20;99.90
19044;DHT22;9654;52.302;8.120;2022-10-16T05:26:45;12.10;99.90
19044;DHT22;9654;52.302;8.120;2022-10-16T05:29:12;12.10;99.90
19044;DHT22;9654;52.302;8.120;2022-10-16T05:31:39;12.10;99.90
19044;DHT22;9654;52.302;8.120;2022-10-16T05:34:05;12.10;99.90
19044;DHT22;9654;52.302;8.120;2022-10-16T05:36:33;12.10;99.90
19044;DHT22;9654;52.302;8.120;2022-10-16T05:39:00;12.10;99.90
19044;DHT22;9654;52.302;8.120;2022-10-16T05:41:27;12.20;99.90
19044;DHT22;9654;52.302;8.120;2022-10-16T05:43:54;12.20;99.90
19044;DHT22;9654;52.302;8.120;2022-10-16T05:46:20;12.20;99.90
19044;DHT22;9654;52.302;8.120;2022-10-16T05:48:47;12.20;99.90
19044;DHT22;9654;52.302;8.120;2022-10-16T05:51:14;12.20;99.90
19044;DHT22;9654;52.302;8.120;2022-10-16T05:53:43;12.20;99.90
19044;DHT22;9654;52.302;8.120;2022-10-16T05:56:11;12.20;99.90
19044;DHT22;9654;52.302;8.120;2022-10-16T05:58:39;12.20;99.90
19044;DHT22;9654;52.302;8.120;2022-10-16T06:01:09;12.20;99.90
19044;DHT22;9654;52.302;8.120;2022-10-16T06:03:37;12.20;99.90
19044;DHT22;9654;52.302;8.120;2022-10-16T06:06:11;12.10;99.90
19044;DHT22;9654;52.302;8.120;2022-10-16T06:08:38;12.10;99.90
19044;DHT22;9654;52.302;8.120;2022-10-16T06:11:08;12.10;99.90
19044;DHT22;9654;52.302;8.120;2022-10-16T06:13:35;12.20;99.90
19044;DHT22;9654;52.302;8.120;2022-10-16T06:16:03;12.20;99.90
19044;DHT22;9654;52.302;8.120;2022-10-16T06:18:30;12.20;99.90
19044;DHT22;9654;52.302;8.120;2022-10-16T06:20:57;12.10;99.90
19044;DHT22;9654;52.302;8.120;2022-10-16T06:23:24;12.10;99.90
19044;DHT22;9654;52.302;8.120;2022-10-16T06:25:51;12.10;99.90
19044;DHT22;9654;52.302;8.120;2022-10-16T06:28:19;12.10;99.90
19044;DHT22;9654;52.302;8.120;2022-10-16T06:30:46;12.20;99.90
19044;DHT22;9654;52.302;8.120;2022-10-16T06:33:13;12.20;99.90
19044;DHT22;9654;52.302;8.120;2022-10-16T06:35:39;12.20;99.90
19044;DHT22;9654;52.302;8.120;2022-10-16T06:38:06;12.30;99.90
19044;DHT22;9654;52.302;8.120;2022-10-16T06:40:33;12.40;99.90
19044;DHT22;9654;52.302;8.120;2022-10-16T06:42:59;12.40;99.90
19044;DHT22;9654;52.302;8.120;2022-10-16T06:45:27;12.50;99.90
19044;DHT22;9654;52.302;8.120;2022-10-16T06:47:54;12.50;99.90
19044;DHT22;9654;52.302;8.120;2022-10-16T06:50:21;12.60;99.90
19044;DHT22;9654;52.302;8.120;2022-10-16T06:52:47;12.60;99.90
19044;DHT22;9654;52.302;8.120;2022-10-16T06:55:14;12.70;99.90
19044;DHT22;9654;52.302;8.120;2022-10-16T06:57:42;12.80;99.90
19044;DHT22;9654;52.302;8.120;2022-10-16T07:00:10;12.90;99.90
19044;DHT22;9654;52.302;8.120;2022-10-16T07:02:38;12.90;99.90
19044;DHT22;9654;52.302;8.120;2022-10-16T07:05:05;13.00;99.90
19044;DHT22;9654;52.302;8.120;2022-10-16T07:07:32;13.10;99.90
19044;DHT22;9654;52.302;8.120;2022-10-16T07:09:59;13.10;99.90
19044;DHT22;9654;52.302;8.120;2022-10-16T07:12:25;13.10;99.90
19044;DHT22;9654;52.302;8.120;2022-10-16T07:14:52;13.10;99.90
19044;DHT22;9654;52.302;8.120;2022-10-16T07:17:21;13.20;99.90
19044;DHT22;9654;52.302;8.120;2022-10-16T07:19:51;13.20;99.90
19044;DHT22;9654;52.302;8.120;2022-10-16T07:22:18;13.20;99.90
19044;DHT22;9654;52.302;8.120;2022-10-16T07:24:45;13.20;99.90
19044;DHT22;9654;52.302;8.120;2022-10-16T07:27:12;13.20;99.90
19044;DHT22;9654;52.302;8.120;2022-10-16T07:29:39;13.20;99.90
19044;DHT22;9654;52.302;8.120;2022-10-16T07:32:05;13.20;99.90
19044;DHT22;9654;52.302;8.120;2022-10-16T07:34:32;13.10;99.90
19044;DHT22;9654;52.302;8.120;2022-10-16T07:37:00;13.20;99.90
19044;DHT22;9654;52.302;8.120;2022-10-16T07:39:27;13.20;99.90
19044;DHT22;9654;52.302;8.120;2022-10-16T07:41:54;13.20;99.90
19044;DHT22;9654;52.302;8.120;2022-10-16T07:44:21;13.30;99.90
19044;DHT22;9654;52.302;8.120;2022-10-16T07:46:47;13.40;99.90
19044;DHT22;9654;52.302;8.120;2022-10-16T07:49:14;13.40;99.90
19044;DHT22;9654;52.302;8.120;2022-10-16T07:51:41;13.50;99.90
19044;DHT22;9654;52.302;8.120;2022-10-16T07:54:09;13.60;99.90
19044;DHT22;9654;52.302;8.120;2022-10-16T07:56:36;13.70;99.90
19044;DHT22;9654;52.302;8.120;2022-10-16T07:59:03;13.70;99.90
19044;DHT22;9654;52.302;8.120;2022-10-16T08:01:29;13.80;99.90
19044;DHT22;9654;52.302;8.120;2022-10-16T08:03:56;13.90;99.90
19044;DHT22;9654;52.302;8.120;2022-10-16T08:06:23;13.90;99.90
19044;DHT22;9654;52.302;8.120;2022-10-16T08:08:50;14.00;99.90
19044;DHT22;9654;52.302;8.120;2022-10-16T08:11:18;14.10;99.90
19044;DHT22;9654;52.302;8.120;2022-10-16T08:13:44;14.10;99.90
19044;DHT22;9654;52.302;8.120;2022-10-16T08:16:11;14.20;99.90
19044;DHT22;9654;52.302;8.120;2022-10-16T08:18:39;14.30;99.90
19044;DHT22;9654;52.302;8.120;2022-10-16T08:21:08;14.20;99.90
19044;DHT22;9654;52.302;8.120;2022-10-16T08:23:37;14.30;99.90
19044;DHT22;9654;52.302;8.120;2022-10-16T08:26:05;14.30;99.90
19044;DHT22;9654;52.302;8.120;2022-10-16T08:28:34;14.50;99.90
19044;DHT22;9654;52.302;8.120;2022-10-16T08:31:06;14.50;99.90
19044;DHT22;9654;52.302;8.120;2022-10-16T08:33:33;14.60;99.90
19044;DHT22;9654;52.302;8.120;2022-10-16T08:36:01;14.70;99.90
19044;DHT22;9654;52.302;8.120;2022-10-16T08:38:28;14.70;99.90
19044;DHT22;9654;52.302;8.120;2022-10-16T08:40:57;14.90;99.90
19044;DHT22;9654;52.302;8.120;2022-10-16T08:43:42;14.90;99.90
19044;DHT22;9654;52.302;8.120;2022-10-16T08:46:23;15.00;99.90
19044;DHT22;9654;52.302;8.120;2022-10-16T08:48:51;15.00;99.90
19044;DHT22;9654;52.302;8.120;2022-10-16T08:51:23;15.10;99.90
19044;DHT22;9654;52.302;8.120;2022-10-16T08:53:54;15.00;99.90
19044;DHT22;9654;52.302;8.120;2022-10-16T08:56:21;15.00;99.90
19044;DHT22;9654;52.302;8.120;2022-10-16T08:58:51;15.00;99.90
19044;DHT22;9654;52.302;8.120;2022-10-16T09:01:20;15.10;99.90
19044;DHT22;9654;52.302;8.120;2022-10-16T09:07:12;15.30;99.90
19044;DHT22;9654;52.302;8.120;2022-10-16T09:09:57;15.30;99.90
19044;DHT22;9654;52.302;8.120;2022-10-16T09:12:31;15.40;99.90
19044;DHT22;9654;52.302;8.120;2022-10-16T09:15:07;15.50;99.90
19044;DHT22;9654;52.302;8.120;2022-10-16T09:17:46;15.60;99.90
19044;DHT22;9654;52.302;8.120;2022-10-16T09:20:32;15.60;99.90
19044;DHT22;9654;52.302;8.120;2022-10-16T09:23:16;15.70;99.90
19044;DHT22;9654;52.302;8.120;2022-10-16T09:25:48;15.70;99.90
19044;DHT22;9654;52.302;8.120;2022-10-16T09:28:16;15.90;99.90
19044;DHT22;9654;52.302;8.120;2022-10-16T09:30:45;16.00;99.90
19044;DHT22;9654;52.302;8.120;2022-10-16T09:33:13;16.00;99.90
19044;DHT22;9654;52.302;8.120;2022-10-16T09:35:43;16.00;99.90
19044;DHT22;9654;52.302;8.120;2022-10-16T09:38:21;16.00;99.90
19044;DHT22;9654;52.302;8.120;2022-10-16T09:40:48;16.00;99.90
19044;DHT22;9654;52.302;8.120;2022-10-16T09:43:22;16.10;99.90
19044;DHT22;9654;52.302;8.120;2022-10-16T09:45:59;16.30;99.90
19044;DHT22;9654;52.302;8.120;2022-10-16T09:48:30;16.30;99.90
19044;DHT22;9654;52.302;8.120;2022-10-16T09:51:00;16.30;99.90
19044;DHT22;9654;52.302;8.120;2022-10-16T09:53:41;16.30;99.90
19044;DHT22;9654;52.302;8.120;2022-10-16T09:56:10;16.40;99.90
19044;DHT22;9654;52.302;8.120;2022-10-16T09:58:42;16.40;99.90
19044;DHT22;9654;52.302;8.120;2022-10-16T10:01:13;16.40;99.90
19044;DHT22;9654;52.302;8.120;2022-10-16T10:03:42;16.60;99.90
19044;DHT22;9654;52.302;8.120;2022-10-16T10:06:22;16.80;99.90
19044;DHT22;9654;52.302;8.120;2022-10-16T10:09:02;16.80;99.90
19044;DHT22;9654;52.302;8.120;2022-10-16T10:11:37;16.90;99.90
19044;DHT22;9654;52.302;8.120;2022-10-16T10:14:05;16.90;99.90
19044;DHT22;9654;52.302;8.120;2022-10-16T10:16:33;16.70;99.90
19044;DHT22;9654;52.302;8.120;2022-10-16T10:19:00;16.70;99.90
19044;DHT22;9654;52.302;8.120;2022-10-16T10:21:27;16.70;99.90
19044;DHT22;9654;52.302;8.120;2022-10-16T10:23:57;16.70;99.90
19044;DHT22;9654;52.302;8.120;2022-10-16T10:26:27;16.70;99.90
19044;DHT22;9654;52.302;8.120;2022-10-16T10:29:00;16.60;99.90
19044;DHT22;9654;52.302;8.120;2022-10-16T10:31:36;16.70;99.90
19044;DHT22;9654;52.302;8.120;2022-10-16T10:34:22;16.90;99.90
19044;DHT22;9654;52.302;8.120;2022-10-16T10:36:56;17.00;99.90
19044;DHT22;9654;52.302;8.120;2022-10-16T10:39:32;17.10;99.90
19044;DHT22;9654;52.302;8.120;2022-10-16T10:42:21;17.10;99.90
19044;DHT22;9654;52.302;8.120;2022-10-16T10:45:11;17.20;99.90
19044;DHT22;9654;52.302;8.120;2022-10-16T10:47:48;17.10;99.90
19044;DHT22;9654;52.302;8.120;2022-10-16T10:50:24;17.10;99.90
19044;DHT22;9654;52.302;8.120;2022-10-16T10:52:58;17.20;99.90
19044;DHT22;9654;52.302;8.120;2022-10-16T10:55:32;17.30;99.90
19044;DHT22;9654;52.302;8.120;2022-10-16T10:58:14;17.30;99.90
19044;DHT22;9654;52.302;8.120;2022-10-16T11:00:50;17.20;99.90
19044;DHT22;9654;52.302;8.120;2022-10-16T11:03:31;17.20;99.90
19044;DHT22;9654;52.302;8.120;2022-10-16T11:06:04;17.30;99.90
19044;DHT22;9654;52.302;8.120;2022-10-16T11:08:36;17.50;99.90
19044;DHT22;9654;52.302;8.120;2022-10-16T11:11:11;17.70;99.90
19044;DHT22;9654;52.302;8.120;2022-10-16T11:13:54;17.80;99.90
19044;DHT22;9654;52.302;8.120;2022-10-16T11:16:23;17.80;99.90
19044;DHT22;9654;52.302;8.120;2022-10-16T11:18:58;17.80;99.90
19044;DHT22;9654;52.302;8.120;2022-10-16T11:21:28;17.90;99.90
19044;DHT22;9654;52.302;8.120;2022-10-16T11:24:00;18.10;99.90
19044;DHT22;9654;52.302;8.120;2022-10-16T11:26:33;18.10;99.90
19044;DHT22;9654;52.302;8.120;2022-10-16T11:29:02;17.80;99.90
19044;DHT22;9654;52.302;8.120;2022-10-16T11:31:36;17.50;99.90
19044;DHT22;9654;52.302;8.120;2022-10-16T11:34:11;17.30;99.90
19044;DHT22;9654;52.302;8.120;2022-10-16T11:36:46;17.20;99.90
19044;DHT22;9654;52.302;8.120;2022-10-16T11:39:20;17.10;99.90
19044;DHT22;9654;52.302;8.120;2022-10-16T11:41:49;17.10;99.90
19044;DHT22;9654;52.302;8.120;2022-10-16T11:44:27;17.10;99.90
19044;DHT22;9654;52.302;8.120;2022-10-16T11:47:02;17.30;99.90
19044;DHT22;9654;52.302;8.120;2022-10-16T11:49:36;17.60;99.90
19044;DHT22;9654;52.302;8.120;2022-10-16T11:52:11;17.90;99.90
19044;DHT22;9654;52.302;8.120;2022-10-16T11:54:44;18.10;99.90
19044;DHT22;9654;52.302;8.120;2022-10-16T11:57:15;18.40;99.90
19044;DHT22;9654;52.302;8.120;2022-10-16T11:59:46;18.60;99.90
19044;DHT22;9654;52.302;8.120;2022-10-16T12:02:38;18.90;99.90
19044;DHT22;9654;52.302;8.120;2022-10-16T12:05:18;19.10;99.90
19044;DHT22;9654;52.302;8.120;2022-10-16T12:07:51;18.80;99.90
19044;DHT22;9654;52.302;8.120;2022-10-16T12:10:22;18.80;99.90
19044;DHT22;9654;52.302;8.120;2022-10-16T12:12:50;18.90;99.90
19044;DHT22;9654;52.302;8.120;2022-10-16T12:15:23;19.10;99.90
19044;DHT22;9654;52.302;8.120;2022-10-16T12:17:51;19.20;99.90
19044;DHT22;9654;52.302;8.120;2022-10-16T12:20:28;19.10;99.90
19044;DHT22;9654;52.302;8.120;2022-10-16T12:22:58;19.00;99.90
19044;DHT22;9654;52.302;8.120;2022-10-16T12:25:27;19.00;99.90
19044;DHT22;9654;52.302;8.120;2022-10-16T12:28:00;19.10;99.90
19044;DHT22;9654;52.302;8.120;2022-10-16T12:30:30;19.20;99.90
19044;DHT22;9654;52.302;8.120;2022-10-16T12:32:59;19.10;99.90
19044;DHT22;9654;52.302;8.120;2022-10-16T12:35:30;19.00;99.90
19044;DHT22;9654;52.302;8.120;2022-10-16T12:38:12;18.70;99.90
19044;DHT22;9654;52.302;8.120;2022-10-16T12:40:42;18.40;99.90
19044;DHT22;9654;52.302;8.120;2022-10-16T12:43:38;18.30;99.90
19044;DHT22;9654;52.302;8.120;2022-10-16T12:46:22;18.30;99.90
19044;DHT22;9654;52.302;8.120;2022-10-16T12:48:50;18.30;99.90
19044;DHT22;9654;52.302;8.120;2022-10-16T12:51:33;18.50;99.90
19044;DHT22;9654;52.302;8.120;2022-10-16T12:54:00;18.70;99.90
19044;DHT22;9654;52.302;8.120;2022-10-16T12:56:37;18.70;99.90
19044;DHT22;9654;52.302;8.120;2022-10-16T12:59:16;18.80;99.90
19044;DHT22;9654;52.302;8.120;2022-10-16T13:01:56;18.80;99.90
19044;DHT22;9654;52.302;8.120;2022-10-16T13:04:39;18.90;99.90
19044;DHT22;9654;52.302;8.120;2022-10-16T13:07:28;19.10;99.90
19044;DHT22;9654;52.302;8.120;2022-10-16T13:10:05;19.30;99.90
19044;DHT22;9654;52.302;8.120;2022-10-16T13:12:54;19.50;99.90
19044;DHT22;9654;52.302;8.120;2022-10-16T13:15:30;19.70;99.90
19044;DHT22;9654;52.302;8.120;2022-10-16T13:18:06;19.90;99.90
19044;DHT22;9654;52.302;8.120;2022-10-16T13:20:50;19.60;99.90
19044;DHT22;9654;52.302;8.120;2022-10-16T13:23:23;19.50;99.90
19044;DHT22;9654;52.302;8.120;2022-10-16T13:26:02;19.40;99.90
19044;DHT22;9654;52.302;8.120;2022-10-16T13:28:33;19.40;99.90
19044;DHT22;9654;52.302;8.120;2022-10-16T13:31:01;19.40;99.90
19044;DHT22;9654;52.302;8.120;2022-10-16T13:33:32;19.30;99.90
19044;DHT22;9654;52.302;8.120;2022-10-16T13:35:59;19.30;99.90
19044;DHT22;9654;52.302;8.120;2022-10-16T13:38:29;19.30;99.90
19044;DHT22;9654;52.302;8.120;2022-10-16T13:40:58;19.20;99.90
19044;DHT22;9654;52.302;8.120;2022-10-16T13:43:28;19.20;99.90
19044;DHT22;9654;52.302;8.120;2022-10-16T13:45:59;19.10;99.90
19044;DHT22;9654;52.302;8.120;2022-10-16T13:48:27;19.10;99.90
19044;DHT22;9654;52.302;8.120;2022-10-16T13:51:03;19.20;99.90
19044;DHT22;9654;52.302;8.120;2022-10-16T13:53:32;19.10;99.90
19044;DHT22;9654;52.302;8.120;2022-10-16T13:56:00;19.10;99.90
19044;DHT22;9654;52.302;8.120;2022-10-16T13:58:28;19.10;99.90
19044;DHT22;9654;52.302;8.120;2022-10-16T14:00:56;19.20;99.90
19044;DHT22;9654;52.302;8.120;2022-10-16T14:03:25;19.30;99.90
19044;DHT22;9654;52.302;8.120;2022-10-16T14:05:54;19.40;99.90
19044;DHT22;9654;52.302;8.120;2022-10-16T14:08:22;19.40;99.90
19044;DHT22;9654;52.302;8.120;2022-10-16T14:10:55;19.40;99.90
19044;DHT22;9654;52.302;8.120;2022-10-16T14:13:30;19.20;99.90
19044;DHT22;9654;52.302;8.120;2022-10-16T14:16:02;19.10;99.90
19044;DHT22;9654;52.302;8.120;2022-10-16T14:18:29;19.00;99.90
19044;DHT22;9654;52.302;8.120;2022-10-16T14:21:03;18.90;99.90
19044;DHT22;9654;52.302;8.120;2022-10-16T14:23:32;19.00;99.90
19044;DHT22;9654;52.302;8.120;2022-10-16T14:26:23;19.00;99.90
19044;DHT22;9654;52.302;8.120;2022-10-16T14:29:03;19.00;99.90
19044;DHT22;9654;52.302;8.120;2022-10-16T14:31:35;19.00;99.90
19044;DHT22;9654;52.302;8.120;2022-10-16T14:34:03;19.00;99.90
19044;DHT22;9654;52.302;8.120;2022-10-16T14:36:30;19.00;99.90
19044;DHT22;9654;52.302;8.120;2022-10-16T14:39:00;19.10;99.90
19044;DHT22;9654;52.302;8.120;2022-10-16T14:41:30;19.00;99.90
19044;DHT22;9654;52.302;8.120;2022-10-16T14:44:00;19.10;99.90
19044;DHT22;9654;52.302;8.120;2022-10-16T14:46:34;19.10;99.90
19044;DHT22;9654;52.302;8.120;2022-10-16T14:49:04;19.10;99.90
19044;DHT22;9654;52.302;8.120;2022-10-16T14:51:41;19.10;99.90
19044;DHT22;9654;52.302;8.120;2022-10-16T14:54:10;19.10;99.90
19044;DHT22;9654;52.302;8.120;2022-10-16T14:56:45;19.00;99.90
19044;DHT22;9654;52.302;8.120;2022-10-16T14:59:16;19.00;99.90
19044;DHT22;9654;52.302;8.120;2022-10-16T15:01:43;19.00;99.90
19044;DHT22;9654;52.302;8.120;2022-10-16T15:04:11;18.90;99.90
19044;DHT22;9654;52.302;8.120;2022-10-16T15:06:38;18.80;99.90
19044;DHT22;9654;52.302;8.120;2022-10-16T15:09:05;18.80;99.90
19044;DHT22;9654;52.302;8.120;2022-10-16T15:11:32;18.80;99.90
19044;DHT22;9654;52.302;8.120;2022-10-16T15:14:01;18.80;99.90
19044;DHT22;9654;52.302;8.120;2022-10-16T15:16:29;18.70;99.90
19044;DHT22;9654;52.302;8.120;2022-10-16T15:18:56;18.50;99.90
19044;DHT22;9654;52.302;8.120;2022-10-16T15:21:25;18.40;99.90
19044;DHT22;9654;52.302;8.120;2022-10-16T15:23:53;18.30;99.90
19044;DHT22;9654;52.302;8.120;2022-10-16T15:26:20;18.30;99.90
19044;DHT22;9654;52.302;8.120;2022-10-16T15:28:46;18.20;99.90
19044;DHT22;9654;52.302;8.120;2022-10-16T15:31:14;18.20;99.90
19044;DHT22;9654;52.302;8.120;2022-10-16T15:33:41;18.10;99.90
19044;DHT22;9654;52.302;8.120;2022-10-16T15:36:08;18.00;99.90
19044;DHT22;9654;52.302;8.120;2022-10-16T15:38:35;17.90;99.90
19044;DHT22;9654;52.302;8.120;2022-10-16T15:41:02;17.80;99.90
19044;DHT22;9654;52.302;8.120;2022-10-16T15:43:29;17.70;99.90
19044;DHT22;9654;52.302;8.120;2022-10-16T15:46:00;17.60;99.90
19044;DHT22;9654;52.302;8.120;2022-10-16T15:48:29;17.50;99.90
19044;DHT22;9654;52.302;8.120;2022-10-16T15:50:56;17.40;99.90
19044;DHT22;9654;52.302;8.120;2022-10-16T15:53:23;17.30;99.90
19044;DHT22;9654;52.302;8.120;2022-10-16T15:55:50;17.20;99.90
19044;DHT22;9654;52.302;8.120;2022-10-16T15:58:17;17.20;99.90
19044;DHT22;9654;52.302;8.120;2022-10-16T16:00:44;17.10;99.90
19044;DHT22;9654;52.302;8.120;2022-10-16T16:03:11;17.00;99.90
19044;DHT22;9654;52.302;8.120;2022-10-16T16:05:39;17.00;99.90
19044;DHT22;9654;52.302;8.120;2022-10-16T16:08:06;16.90;99.90